createdAt,value
2019-02-05T00:00:35.695Z,26.60
2019-02-05T00:03:11.448Z,26.63
2019-02-05T00:05:46.407Z,27.20
2019-02-05T00:08:21.262Z,27.50
2019-02-05T00:10:56.274Z,26.97
2019-02-05T00:13:31.074Z,27.27
2019-02-05T00:16:06.111Z,26.57
2019-02-05T00:18:40.914Z,27.33
2019-02-05T00:21:15.725Z,27.47
2019-02-05T00:23:50.599Z,26.57
2019-02-05T00:26:25.427Z,27.00
2019-02-05T00:29:00.145Z,26.13
2019-02-05T00:31:36.968Z,26.13
2019-02-05T00:34:11.908Z,26.13
2019-02-05T00:36:46.806Z,26.83
2019-02-05T00:39:21.603Z,26.33
2019-02-05T00:41:56.435Z,26.27
2019-02-05T00:44:31.154Z,26.20
2019-02-05T00:47:07.350Z,26.60
2019-02-05T00:49:42.070Z,25.90
2019-02-05T00:52:16.858Z,25.80
2019-02-05T00:54:51.586Z,25.97
2019-02-05T00:57:26.326Z,25.83
2019-02-05T01:00:01.135Z,25.87
2019-02-05T01:02:35.953Z,25.93
2019-02-05T01:05:11.070Z,26.10
2019-02-05T01:07:46.464Z,26.70
2019-02-05T01:10:22.952Z,26.43
2019-02-05T01:12:57.779Z,25.87
2019-02-05T01:15:32.606Z,26.83
2019-02-05T01:18:07.490Z,26.97
2019-02-05T01:20:42.390Z,26.50
2019-02-05T01:23:17.235Z,26.10
2019-02-05T01:25:52.039Z,26.87
2019-02-05T01:28:26.783Z,26.43
2019-02-05T01:31:01.590Z,26.87
2019-02-05T01:33:36.779Z,27.10
2019-02-05T01:36:11.664Z,26.47
2019-02-05T01:38:46.454Z,27.27
2019-02-05T01:41:22.238Z,26.80
2019-02-05T01:43:57.419Z,27.13
2019-02-05T01:46:32.250Z,27.67
2019-02-05T01:49:07.102Z,27.67
2019-02-05T01:51:41.964Z,27.57
2019-02-05T01:54:17.187Z,27.80
2019-02-05T01:56:51.920Z,27.77
2019-02-05T01:59:26.720Z,27.83
2019-02-05T02:02:01.451Z,27.37
2019-02-05T02:04:36.791Z,27.07
2019-02-05T02:07:12.074Z,27.63
2019-02-05T02:09:46.859Z,27.70
2019-02-05T02:12:21.771Z,27.17
2019-02-05T02:14:57.036Z,27.00
2019-02-05T02:17:31.917Z,26.80
2019-02-05T02:20:09.262Z,27.17
2019-02-05T02:22:44.165Z,27.50
2019-02-05T02:25:19.602Z,27.00
2019-02-05T02:27:54.438Z,27.40
2019-02-05T02:30:31.995Z,27.90
2019-02-05T02:33:07.427Z,27.17
2019-02-05T02:35:42.523Z,27.20
2019-02-05T02:38:17.412Z,27.17
2019-02-05T02:40:52.282Z,27.77
2019-02-05T02:43:27.015Z,27.77
2019-02-05T02:46:02.503Z,27.37
2019-02-05T02:48:37.386Z,27.17
2019-02-05T02:51:12.250Z,27.20
2019-02-05T02:53:47.063Z,27.43
2019-02-05T02:56:21.871Z,27.20
2019-02-05T02:58:56.687Z,27.07
2019-02-05T03:01:31.487Z,27.77
2019-02-05T03:04:06.294Z,27.87
2019-02-05T03:06:41.536Z,27.70
2019-02-05T03:09:16.345Z,28.10
2019-02-05T03:11:51.245Z,27.67
2019-02-05T03:14:26.010Z,26.97
2019-02-05T03:17:00.791Z,28.13
2019-02-05T03:19:35.598Z,27.20
2019-02-05T03:22:10.394Z,27.73
2019-02-05T03:24:46.127Z,27.63
2019-02-05T03:27:20.940Z,26.73
2019-02-05T03:29:56.022Z,26.87
2019-02-05T03:32:30.737Z,27.23
2019-02-05T03:35:07.032Z,26.55
2019-02-05T03:37:41.891Z,27.20
2019-02-05T03:41:07.940Z,27.90
2019-02-05T03:43:42.801Z,28.27
2019-02-05T03:46:18.740Z,27.13
2019-02-05T03:48:54.705Z,27.90
2019-02-05T03:51:52.427Z,28.97
2019-02-05T03:55:06.532Z,28.53
2019-02-05T03:57:52.896Z,27.53
2019-02-05T04:00:40.060Z,27.23
2019-02-05T04:03:28.139Z,27.20
2019-02-05T04:06:16.199Z,27.43
2019-02-05T04:09:05.046Z,27.77
2019-02-05T04:11:51.559Z,28.33
2019-02-05T04:14:38.318Z,29.17
2019-02-05T04:17:24.964Z,29.47
2019-02-05T04:20:11.811Z,29.97
2019-02-05T04:22:58.824Z,29.40
2019-02-05T04:25:45.400Z,29.37
2019-02-05T04:28:32.412Z,29.80
2019-02-05T04:31:19.897Z,29.37
2019-02-05T04:34:06.287Z,29.10
2019-02-05T04:36:52.596Z,29.20
2019-02-05T04:39:38.904Z,28.33
2019-02-05T04:46:30.063Z,29.57
2019-02-05T04:49:16.932Z,28.87
2019-02-05T04:52:03.700Z,29.87
2019-02-05T04:54:50.547Z,28.50
2019-02-05T04:58:01.339Z,29.27
2019-02-05T05:01:07.579Z,28.80
2019-02-05T05:03:54.327Z,29.30
2019-02-05T05:06:41.149Z,29.07
2019-02-05T05:09:27.402Z,30.93
2019-02-05T05:12:14.347Z,30.40
2019-02-05T05:15:01.369Z,30.73
2019-02-05T05:17:47.658Z,31.40
2019-02-05T05:20:34.136Z,30.63
2019-02-05T05:23:21.339Z,30.10
2019-02-05T05:26:07.632Z,30.73
2019-02-05T05:28:54.959Z,30.23
2019-02-05T05:31:41.525Z,29.30
2019-02-05T05:34:28.097Z,29.10
2019-02-05T05:37:12.365Z,28.73
2019-02-05T05:40:06.463Z,29.07
2019-02-05T05:42:53.300Z,29.07
2019-02-05T05:45:40.077Z,29.40
2019-02-05T05:48:27.445Z,29.30
2019-02-05T05:51:14.535Z,29.00
2019-02-05T05:54:02.339Z,29.13
2019-02-05T05:56:48.777Z,29.83
2019-02-05T05:59:35.204Z,29.17
2019-02-05T06:02:22.415Z,29.97
2019-02-05T06:05:08.687Z,28.30
2019-02-05T06:07:55.681Z,28.90
2019-02-05T06:10:42.184Z,28.33
2019-02-05T06:13:29.075Z,28.47
2019-02-05T06:16:15.984Z,30.60
2019-02-05T06:19:03.067Z,38.87
2019-02-05T06:21:49.552Z,35.43
2019-02-05T06:24:36.533Z,41.37
2019-02-05T06:27:23.372Z,34.83
2019-02-05T06:30:09.758Z,30.37
2019-02-05T06:32:56.680Z,32.10
2019-02-05T06:35:43.620Z,35.80
2019-02-05T06:38:30.415Z,32.50
2019-02-05T06:41:16.684Z,30.73
2019-02-05T06:44:03.116Z,30.60
2019-02-05T06:46:50.175Z,30.53
2019-02-05T06:49:37.355Z,30.67
2019-02-05T06:52:23.920Z,32.73
2019-02-05T06:55:10.899Z,31.90
2019-02-05T06:57:57.806Z,30.53
2019-02-05T07:00:44.939Z,29.47
2019-02-05T07:03:32.329Z,29.87
2019-02-05T07:06:19.468Z,29.97
2019-02-05T07:09:06.415Z,30.70
2019-02-05T07:11:53.139Z,31.70
2019-02-05T07:14:40.148Z,31.43
2019-02-05T07:17:27.410Z,31.60
2019-02-05T07:20:14.231Z,31.10
2019-02-05T07:23:00.654Z,30.27
2019-02-05T07:25:47.036Z,30.30
2019-02-05T07:28:34.045Z,30.70
2019-02-05T07:31:21.039Z,30.97
2019-02-05T07:34:07.489Z,30.33
2019-02-05T07:36:54.251Z,30.70
2019-02-05T07:39:41.155Z,32.33
2019-02-05T07:42:27.775Z,32.67
2019-02-05T07:45:15.260Z,33.13
2019-02-05T07:48:02.411Z,30.43
2019-02-05T07:50:38.204Z,31.83
2019-02-05T07:53:33.272Z,34.53
2019-02-05T07:56:30.077Z,39.10
2019-02-05T07:59:16.921Z,31.90
2019-02-05T08:02:03.968Z,30.57
2019-02-05T08:04:51.028Z,30.83
2019-02-05T08:07:37.500Z,32.07
2019-02-05T08:10:24.339Z,31.57
2019-02-05T08:13:11.711Z,31.73
2019-02-05T08:15:58.258Z,32.00
2019-02-05T08:18:45.463Z,31.20
2019-02-05T08:21:31.996Z,33.30
2019-02-05T08:24:19.192Z,31.93
2019-02-05T08:27:05.944Z,31.30
2019-02-05T08:29:52.966Z,31.47
2019-02-05T08:32:40.098Z,31.13
2019-02-05T08:35:26.625Z,32.27
2019-02-05T08:38:13.771Z,32.60
2019-02-05T08:41:01.304Z,32.10
2019-02-05T08:43:48.058Z,33.57
2019-02-05T08:46:34.811Z,32.23
2019-02-05T08:49:21.667Z,31.70
2019-02-05T08:52:08.702Z,34.37
2019-02-05T08:54:56.040Z,33.53
2019-02-05T08:57:43.086Z,32.77
2019-02-05T09:00:30.164Z,31.77
2019-02-05T09:03:17.103Z,30.23
2019-02-05T09:06:04.411Z,30.13
2019-02-05T09:08:51.800Z,30.77
2019-02-05T09:11:38.436Z,29.73
2019-02-05T09:14:25.033Z,30.90
2019-02-05T09:17:11.480Z,32.50
2019-02-05T09:19:58.799Z,31.70
2019-02-05T09:22:45.864Z,30.77
2019-02-05T09:25:32.828Z,30.50
2019-02-05T09:28:19.504Z,32.00
2019-02-05T09:31:06.183Z,31.17
2019-02-05T09:33:53.040Z,32.00
2019-02-05T09:36:39.586Z,34.47
2019-02-05T09:39:26.627Z,34.63
2019-02-05T09:42:13.715Z,33.73
2019-02-05T09:45:00.605Z,34.60
2019-02-05T09:50:59.345Z,33.63
2019-02-05T09:53:46.503Z,33.87
2019-02-05T09:56:33.206Z,33.10
2019-02-05T09:59:19.995Z,34.17
2019-02-05T10:02:06.670Z,34.20
2019-02-05T10:04:53.699Z,33.57
2019-02-05T10:07:40.836Z,34.17
2019-02-05T10:10:27.634Z,34.40
2019-02-05T10:13:13.998Z,34.13
2019-02-05T10:16:01.139Z,33.80
2019-02-05T10:18:48.096Z,33.03
2019-02-05T10:21:34.777Z,33.40
2019-02-05T10:24:21.419Z,33.87
2019-02-05T10:30:13.157Z,32.70
2019-02-05T10:33:00.056Z,33.40
2019-02-05T10:35:47.119Z,33.87
2019-02-05T10:38:34.355Z,33.70
2019-02-05T10:41:21.150Z,34.07
2019-02-05T10:44:08.131Z,33.03
2019-02-05T10:46:55.383Z,33.90
2019-02-05T10:49:42.212Z,33.10
2019-02-05T10:52:28.864Z,33.20
2019-02-05T10:55:15.432Z,34.07
2019-02-05T10:58:02.546Z,34.53
2019-02-05T11:00:49.435Z,32.83
2019-02-05T11:03:36.721Z,32.87
2019-02-05T11:06:23.623Z,33.63
2019-02-05T11:09:10.848Z,32.57
2019-02-05T11:11:57.675Z,33.30
2019-02-05T11:14:44.783Z,33.33
2019-02-05T11:17:31.611Z,34.23
2019-02-05T11:20:18.534Z,34.20
2019-02-05T11:23:05.207Z,34.70
2019-02-05T11:25:52.294Z,34.03
2019-02-05T11:28:38.698Z,33.57
2019-02-05T11:31:25.299Z,33.80
2019-02-05T11:34:12.268Z,33.63
2019-02-05T11:36:59.558Z,33.47
2019-02-05T11:39:45.948Z,34.27
2019-02-05T11:42:32.495Z,34.50
2019-02-05T11:45:19.448Z,32.63
2019-02-05T11:48:06.532Z,34.50
2019-02-05T11:50:53.318Z,33.73
2019-02-05T11:53:39.921Z,35.50
2019-02-05T11:56:26.476Z,36.17
2019-02-05T11:59:13.462Z,35.73
2019-02-05T12:01:59.735Z,35.03
2019-02-05T12:04:46.915Z,34.93
2019-02-05T12:07:33.794Z,36.50
2019-02-05T12:10:20.876Z,35.27
2019-02-05T12:13:07.236Z,35.40
2019-02-05T12:15:54.395Z,36.40
2019-02-05T12:18:41.547Z,36.20
2019-02-05T12:21:28.393Z,35.40
2019-02-05T12:24:15.331Z,35.60
2019-02-05T12:27:02.535Z,35.53
2019-02-05T12:29:49.430Z,35.30
2019-02-05T12:32:36.796Z,35.80
2019-02-05T12:35:23.082Z,35.40
2019-02-05T12:38:10.387Z,34.47
2019-02-05T12:40:57.224Z,34.87
2019-02-05T12:43:44.243Z,34.23
2019-02-05T12:46:31.223Z,33.97
2019-02-05T12:49:17.635Z,34.60
2019-02-05T12:52:04.599Z,31.27
2019-02-05T12:54:51.750Z,34.50
2019-02-05T12:57:38.359Z,35.50
2019-02-05T13:00:25.188Z,34.27
2019-02-05T13:03:12.063Z,34.10
2019-02-05T13:05:58.942Z,35.17
2019-02-05T13:08:45.824Z,34.83
2019-02-05T13:11:32.414Z,35.50
2019-02-05T13:14:19.567Z,35.30
2019-02-05T13:17:06.044Z,33.40
2019-02-05T13:19:52.954Z,35.57
2019-02-05T13:22:39.970Z,35.33
2019-02-05T13:25:26.600Z,35.37
2019-02-05T13:28:13.260Z,35.93
2019-02-05T13:31:07.730Z,34.43
2019-02-05T13:33:48.663Z,35.90
2019-02-05T13:36:35.397Z,35.30
2019-02-05T13:39:21.872Z,36.67
2019-02-05T13:42:08.968Z,36.17
2019-02-05T13:44:56.042Z,35.50
2019-02-05T13:47:42.379Z,35.63
2019-02-05T13:50:32.995Z,36.20
2019-02-05T13:53:17.228Z,36.10
2019-02-05T13:56:05.328Z,35.40
2019-02-05T13:58:52.872Z,36.37
2019-02-05T14:01:39.799Z,35.37
2019-02-05T14:04:26.871Z,34.73
2019-02-05T14:07:13.679Z,36.03
2019-02-05T14:10:00.246Z,37.20
2019-02-05T14:12:46.857Z,35.47
2019-02-05T14:15:33.883Z,36.33
2019-02-05T14:18:22.907Z,36.60
2019-02-05T14:21:09.374Z,36.57
2019-02-05T14:23:56.239Z,36.27
2019-02-05T14:26:43.118Z,35.77
2019-02-05T14:29:30.199Z,35.50
2019-02-05T14:32:16.797Z,36.17
2019-02-05T14:35:03.532Z,36.20
2019-02-05T14:37:49.746Z,35.50
2019-02-05T14:40:36.079Z,36.07
2019-02-05T14:43:22.607Z,36.00
2019-02-05T14:46:09.381Z,36.07
2019-02-05T14:48:56.331Z,37.53
2019-02-05T14:51:43.163Z,37.60
2019-02-05T14:54:29.588Z,36.07
2019-02-05T14:57:16.249Z,36.87
2019-02-05T15:00:02.719Z,38.23
2019-02-05T15:02:51.231Z,37.87
2019-02-05T15:05:37.549Z,36.43
2019-02-05T15:08:24.340Z,37.97
2019-02-05T15:11:11.090Z,37.90
2019-02-05T15:13:58.039Z,37.83
2019-02-05T15:16:44.676Z,37.17
2019-02-05T15:19:31.876Z,37.03
2019-02-05T15:22:18.579Z,37.40
2019-02-05T15:25:05.857Z,37.07
2019-02-05T15:27:52.915Z,37.57
2019-02-05T15:30:39.343Z,35.93
2019-02-05T15:36:50.872Z,38.73
2019-02-05T15:39:38.055Z,38.23
2019-02-05T15:42:24.826Z,37.13
2019-02-05T15:45:11.080Z,38.03
2019-02-05T15:47:58.327Z,38.33
2019-02-05T15:50:45.099Z,37.20
2019-02-05T15:53:32.410Z,37.40
2019-02-05T15:56:20.415Z,37.20
2019-02-05T15:59:07.427Z,37.97
2019-02-05T16:02:05.623Z,38.67
2019-02-05T16:04:43.035Z,38.43
2019-02-05T16:07:30.280Z,39.07
2019-02-05T16:12:45.894Z,38.70
2019-02-05T16:15:33.214Z,37.23
2019-02-05T16:18:21.306Z,37.87
2019-02-05T16:21:08.135Z,37.67
2019-02-05T16:23:58.006Z,37.63
2019-02-05T16:26:43.745Z,37.73
2019-02-05T16:29:30.923Z,39.23
2019-02-05T16:32:18.064Z,36.33
2019-02-05T16:35:05.124Z,36.33
2019-02-05T16:37:52.267Z,38.17
2019-02-05T16:40:38.978Z,38.93
2019-02-05T16:43:27.994Z,38.03
2019-02-05T16:46:14.452Z,39.10
2019-02-05T16:49:01.391Z,39.33
2019-02-05T16:51:48.170Z,37.97
2019-02-05T16:54:35.408Z,38.60
2019-02-05T16:57:22.015Z,38.83
2019-02-05T17:00:08.947Z,37.60
2019-02-05T17:02:56.026Z,37.30
2019-02-05T17:05:42.508Z,37.30
2019-02-05T17:11:36.514Z,39.13
2019-02-05T17:17:49.391Z,41.60
2019-02-05T17:20:35.795Z,42.00
2019-02-05T17:23:23.309Z,43.57
2019-02-05T17:26:10.038Z,43.50
2019-02-05T17:28:56.658Z,43.17
2019-02-05T17:31:43.669Z,45.83
2019-02-05T17:34:28.723Z,41.33
2019-02-05T17:37:22.821Z,40.70
2019-02-05T17:40:09.376Z,82.87
2019-02-05T17:42:56.651Z,67.07
2019-02-05T17:45:42.958Z,76.87
2019-02-05T17:48:30.232Z,64.67
2019-02-05T17:51:17.175Z,53.20
2019-02-05T17:54:04.172Z,46.57
2019-02-05T17:56:50.871Z,46.53
2019-02-05T18:02:30.959Z,43.93
2019-02-05T18:05:18.676Z,46.55
2019-02-05T18:08:05.056Z,51.60
2019-02-05T18:10:52.367Z,119.50
2019-02-05T18:13:39.186Z,81.13
2019-02-05T18:16:25.875Z,49.43
2019-02-05T18:19:12.813Z,59.30
2019-02-05T18:22:00.215Z,47.07
2019-02-05T18:24:47.101Z,43.87
2019-02-05T18:27:33.975Z,45.00
2019-02-05T18:30:20.746Z,44.03
2019-02-05T18:33:10.511Z,42.60
2019-02-05T18:35:58.930Z,47.03
2019-02-05T18:38:46.183Z,45.63
2019-02-05T18:41:33.122Z,44.77
2019-02-05T18:44:19.984Z,43.33
2019-02-05T18:47:06.999Z,42.93
2019-02-05T18:49:54.119Z,42.50
2019-02-05T18:52:40.663Z,42.57
2019-02-05T18:55:16.172Z,42.00
2019-02-05T18:57:52.718Z,42.97
2019-02-05T19:00:39.700Z,41.67
2019-02-05T19:03:26.799Z,40.90
2019-02-05T19:06:13.581Z,40.77
2019-02-05T19:09:00.683Z,41.00
2019-02-05T19:11:47.568Z,43.07
2019-02-05T19:14:34.624Z,44.73
2019-02-05T19:17:09.921Z,46.20
2019-02-05T19:20:05.679Z,45.63
2019-02-05T19:22:52.939Z,48.37
2019-02-05T19:25:58.900Z,53.10
2019-02-05T19:28:45.914Z,53.10
2019-02-05T19:31:40.071Z,49.87
2019-02-05T19:34:36.267Z,49.47
2019-02-05T19:37:41.672Z,46.57
2019-02-05T19:40:28.871Z,43.67
2019-02-05T19:43:16.288Z,40.60
2019-02-05T19:46:22.341Z,38.77
2019-02-05T19:49:31.221Z,38.73
2019-02-05T19:52:37.074Z,35.80
2019-02-05T19:55:24.496Z,35.30
2019-02-05T19:58:11.659Z,34.70
2019-02-05T20:00:58.453Z,33.93
2019-02-05T20:03:44.987Z,34.70
2019-02-05T20:06:32.157Z,34.20
2019-02-05T20:09:19.800Z,34.43
2019-02-05T20:12:07.232Z,34.37
2019-02-05T20:14:54.618Z,35.90
2019-02-05T20:17:42.122Z,34.57
2019-02-05T20:20:31.644Z,34.43
2019-02-05T20:23:18.634Z,34.13
2019-02-05T20:26:05.915Z,34.50
2019-02-05T20:28:53.082Z,34.07
2019-02-05T20:31:40.649Z,33.57
2019-02-05T20:34:27.828Z,33.57
2019-02-05T20:37:14.372Z,32.73
2019-02-05T20:40:01.100Z,34.13
2019-02-05T20:42:49.142Z,32.93
2019-02-05T20:45:36.699Z,33.37
2019-02-05T20:48:23.996Z,32.60
2019-02-05T20:51:11.558Z,32.93
2019-02-05T20:53:58.529Z,33.83
2019-02-05T20:56:45.074Z,34.07
2019-02-05T20:59:31.716Z,33.97
2019-02-05T21:02:18.631Z,34.03
2019-02-05T21:05:05.628Z,32.90
2019-02-05T21:07:52.525Z,34.10
2019-02-05T21:10:39.154Z,34.47
2019-02-05T21:13:26.348Z,35.67
2019-02-05T21:16:13.055Z,34.40
2019-02-05T21:18:59.859Z,34.77
2019-02-05T21:21:46.384Z,34.77
2019-02-05T21:24:33.634Z,34.50
2019-02-05T21:27:20.542Z,36.87
2019-02-05T21:30:07.579Z,37.73
2019-02-05T21:32:54.563Z,36.20
2019-02-05T21:35:41.800Z,37.10
2019-02-05T21:38:28.106Z,37.33
2019-02-05T21:41:14.885Z,35.30
2019-02-05T21:44:01.456Z,36.20
2019-02-05T21:46:48.451Z,35.73
2019-02-05T21:49:35.536Z,36.23
2019-02-05T21:52:22.643Z,38.77
2019-02-05T21:55:09.394Z,40.07
2019-02-05T21:57:56.724Z,40.43
2019-02-05T22:00:42.934Z,39.37
2019-02-05T22:03:29.277Z,40.93
2019-02-05T22:06:16.165Z,40.57
2019-02-05T22:09:03.331Z,41.67
2019-02-05T22:11:51.173Z,39.17
2019-02-05T22:14:38.131Z,38.70
2019-02-05T22:17:25.144Z,38.80
2019-02-05T22:20:11.991Z,38.80
2019-02-05T22:22:58.880Z,37.40
2019-02-05T22:25:45.747Z,37.70
2019-02-05T22:28:32.786Z,38.33
2019-02-05T22:31:19.567Z,38.83
2019-02-05T22:34:06.645Z,39.20
2019-02-05T22:36:53.870Z,39.07
2019-02-05T22:39:41.088Z,38.37
2019-02-05T22:42:27.491Z,39.03
2019-02-05T22:45:14.636Z,38.03
2019-02-05T22:48:01.736Z,37.90
2019-02-05T22:50:48.762Z,36.30
2019-02-05T22:53:35.203Z,36.13
2019-02-05T22:56:22.128Z,36.43
2019-02-05T22:59:09.568Z,36.73
2019-02-05T23:01:56.543Z,36.07
2019-02-05T23:04:50.373Z,35.80
2019-02-05T23:07:31.322Z,33.00
2019-02-05T23:10:18.109Z,30.75
2019-02-05T23:13:05.251Z,30.63
2019-02-05T23:15:52.064Z,31.47
2019-02-05T23:18:38.774Z,31.57
2019-02-05T23:21:25.487Z,30.90
2019-02-05T23:24:12.494Z,30.70
2019-02-05T23:26:59.291Z,31.13
2019-02-05T23:29:45.873Z,30.10
2019-02-05T23:32:32.208Z,29.07
2019-02-05T23:35:19.334Z,29.53
2019-02-05T23:38:06.496Z,30.07
2019-02-05T23:40:53.471Z,30.57
2019-02-05T23:43:40.404Z,30.97
2019-02-05T23:46:27.228Z,31.47
2019-02-05T23:49:13.730Z,32.00
2019-02-05T23:52:00.215Z,30.30
2019-02-05T23:54:46.767Z,30.27
2019-02-05T23:57:33.250Z,29.90
